Decoded Metar for LZIB (BRATISLAVA in SLOVAKIA) (IATA:BTS) | Meteo·Mobile Aviation Weather
aviador You're here:

LZIB Decoded Metar

BRATISLAVA in SLOVAKIA
Report Time2019-01-18 13:00:00
UTC Time2019-01-18 13:29:50
Flight Rules vfr VFR
Wind300° at 09 kt
W.Decomp.*RWY 31: 8.8 kt HW 2 kt LCW
RWY 22: 2.0 kt HW 8.8 kt RCW
W.Rank300° ranks 2
Current wind is below 300° avg. (9.3)
Visibility9999 m
Phenomena:N/A
Clouds:Few 033 Hf
Expected CloudBase > 3,600 ft AGL from Temp-Dew spread
CeilingNone
Temp05°C (ISA -9)
Dew Point-4°C (53% RH)
AAT-0.7°C
QNH1016 hPa
Density Alt-699 ft
Elevation440 ft
Report Wrong Elevation
Raw Report
LZIB 181300Z 30009KT 9999 FEW033 05/M04 Q1016 NOSIG=

Extra information for LZIB:More info

Metar Taf Metar & Taf Last 4 Metars F.Rules Stats Wind Profile Meteogram Temp Stats Airport Information Weather charts Add Link Nearby VenuesMetar ALERT Operation Metar Decoded Social comments